Terminal Aerodrome Forecast
Issued by NWS Austin/San Antonio, TX

Home | Current Version | Previous Version | Text Only | Print | Product List | Glossary On
Versions: 1 2 3 4 5 6 7 8 9 10 11 12 13 14 15 16 17 18 19 20 21 22
000
FTUS44 KEWX 301137
TAFAUS
TAF
KAUS 301137Z 3012/3118 17003KT 6SM BR SCT012
      TEMPO 3012/3014 5SM BR OVC009
     FM301500 20008KT P6SM SCT030
     FM302000 17010KT P6SM SCT250
     FM311100 18005KT P6SM BKN011
     FM311500 17008KT P6SM SCT025=

USA.gov is the U.S. government's official web portal to all federal, state and local government web resources and services.